sensor_id;sensor_type;location;lat;lon;timestamp;P1;durP1;ratioP1;P2;durP2;ratioP2
29196;SDS011;62796;42.654;23.316;2023-12-20T00:01:44;140.23;;;68.07;;
29196;SDS011;62796;42.654;23.316;2023-12-20T00:04:09;128.65;;;64.25;;
29196;SDS011;62796;42.654;23.316;2023-12-20T00:06:35;131.32;;;65.38;;
29196;SDS011;62796;42.654;23.316;2023-12-20T00:09:00;126.88;;;63.47;;
29196;SDS011;62796;42.654;23.316;2023-12-20T00:11:26;120.22;;;60.63;;
29196;SDS011;62796;42.654;23.316;2023-12-20T00:13:51;117.28;;;60.95;;
29196;SDS011;62796;42.654;23.316;2023-12-20T00:16:17;118.43;;;60.47;;
29196;SDS011;62796;42.654;23.316;2023-12-20T00:18:42;115.55;;;57.58;;
29196;SDS011;62796;42.654;23.316;2023-12-20T00:21:08;114.30;;;57.35;;
29196;SDS011;62796;42.654;23.316;2023-12-20T00:23:33;107.30;;;56.50;;
29196;SDS011;62796;42.654;23.316;2023-12-20T00:25:58;105.28;;;55.58;;
29196;SDS011;62796;42.654;23.316;2023-12-20T00:28:24;102.45;;;54.45;;
29196;SDS011;62796;42.654;23.316;2023-12-20T00:30:49;93.57;;;50.40;;
29196;SDS011;62796;42.654;23.316;2023-12-20T00:33:15;97.15;;;51.85;;
29196;SDS011;62796;42.654;23.316;2023-12-20T00:35:40;96.82;;;52.08;;
29196;SDS011;62796;42.654;23.316;2023-12-20T00:38:06;92.78;;;48.85;;
29196;SDS011;62796;42.654;23.316;2023-12-20T00:40:32;89.65;;;47.85;;
29196;SDS011;62796;42.654;23.316;2023-12-20T00:42:58;87.78;;;48.35;;
29196;SDS011;62796;42.654;23.316;2023-12-20T00:45:23;89.18;;;48.13;;
29196;SDS011;62796;42.654;23.316;2023-12-20T00:47:48;86.85;;;49.13;;
29196;SDS011;62796;42.654;23.316;2023-12-20T00:50:14;91.40;;;49.83;;
29196;SDS011;62796;42.654;23.316;2023-12-20T00:52:39;87.75;;;49.38;;
29196;SDS011;62796;42.654;23.316;2023-12-20T00:55:05;84.20;;;46.78;;
29196;SDS011;62796;42.654;23.316;2023-12-20T00:57:30;83.05;;;45.13;;
29196;SDS011;62796;42.654;23.316;2023-12-20T00:59:56;83.63;;;46.25;;
29196;SDS011;62796;42.654;23.316;2023-12-20T01:02:21;80.15;;;43.58;;
29196;SDS011;62796;42.654;23.316;2023-12-20T01:04:47;67.88;;;39.15;;
29196;SDS011;62796;42.654;23.316;2023-12-20T01:07:12;69.72;;;39.45;;
29196;SDS011;62796;42.654;23.316;2023-12-20T01:09:38;71.47;;;39.33;;
29196;SDS011;62796;42.654;23.316;2023-12-20T01:12:03;69.97;;;38.92;;
29196;SDS011;62796;42.654;23.316;2023-12-20T01:14:29;82.72;;;43.35;;
29196;SDS011;62796;42.654;23.316;2023-12-20T01:16:54;71.05;;;39.80;;
29196;SDS011;62796;42.654;23.316;2023-12-20T01:19:19;66.57;;;36.80;;
29196;SDS011;62796;42.654;23.316;2023-12-20T01:21:45;67.72;;;37.83;;
29196;SDS011;62796;42.654;23.316;2023-12-20T01:24:10;64.47;;;35.80;;
29196;SDS011;62796;42.654;23.316;2023-12-20T01:26:35;62.08;;;35.83;;
29196;SDS011;62796;42.654;23.316;2023-12-20T01:29:01;62.28;;;33.33;;
29196;SDS011;62796;42.654;23.316;2023-12-20T01:31:26;65.60;;;33.63;;
29196;SDS011;62796;42.654;23.316;2023-12-20T01:33:52;65.65;;;35.58;;
29196;SDS011;62796;42.654;23.316;2023-12-20T01:36:18;66.25;;;36.85;;
29196;SDS011;62796;42.654;23.316;2023-12-20T01:38:43;60.47;;;32.65;;
29196;SDS011;62796;42.654;23.316;2023-12-20T01:41:08;59.45;;;33.22;;
29196;SDS011;62796;42.654;23.316;2023-12-20T01:43:34;67.47;;;34.67;;
29196;SDS011;62796;42.654;23.316;2023-12-20T01:45:59;57.38;;;31.27;;
29196;SDS011;62796;42.654;23.316;2023-12-20T01:48:25;58.72;;;32.58;;
29196;SDS011;62796;42.654;23.316;2023-12-20T01:50:53;59.85;;;33.47;;
29196;SDS011;62796;42.654;23.316;2023-12-20T01:53:19;59.58;;;33.42;;
29196;SDS011;62796;42.654;23.316;2023-12-20T01:55:46;67.82;;;34.15;;
29196;SDS011;62796;42.654;23.316;2023-12-20T01:58:15;63.67;;;34.42;;
29196;SDS011;62796;42.654;23.316;2023-12-20T02:00:42;74.57;;;39.08;;
29196;SDS011;62796;42.654;23.316;2023-12-20T02:03:07;70.80;;;36.70;;
29196;SDS011;62796;42.654;23.316;2023-12-20T02:05:34;68.55;;;38.10;;
29196;SDS011;62796;42.654;23.316;2023-12-20T02:08:00;71.85;;;39.95;;
29196;SDS011;62796;42.654;23.316;2023-12-20T02:10:26;76.28;;;41.47;;
29196;SDS011;62796;42.654;23.316;2023-12-20T02:12:52;79.75;;;42.85;;
29196;SDS011;62796;42.654;23.316;2023-12-20T02:15:17;86.65;;;42.33;;
29196;SDS011;62796;42.654;23.316;2023-12-20T02:17:43;82.32;;;43.92;;
29196;SDS011;62796;42.654;23.316;2023-12-20T02:20:09;88.30;;;45.78;;
29196;SDS011;62796;42.654;23.316;2023-12-20T02:22:35;86.32;;;44.65;;
29196;SDS011;62796;42.654;23.316;2023-12-20T02:25:00;78.22;;;44.00;;
29196;SDS011;62796;42.654;23.316;2023-12-20T02:27:26;83.43;;;44.80;;
29196;SDS011;62796;42.654;23.316;2023-12-20T02:29:52;82.22;;;44.22;;
29196;SDS011;62796;42.654;23.316;2023-12-20T02:32:18;80.75;;;42.28;;
29196;SDS011;62796;42.654;23.316;2023-12-20T02:34:46;80.80;;;42.38;;
29196;SDS011;62796;42.654;23.316;2023-12-20T02:37:12;81.32;;;42.03;;
29196;SDS011;62796;42.654;23.316;2023-12-20T02:39:38;73.95;;;41.33;;
29196;SDS011;62796;42.654;23.316;2023-12-20T02:42:03;84.55;;;43.13;;
29196;SDS011;62796;42.654;23.316;2023-12-20T02:44:29;74.97;;;40.80;;
29196;SDS011;62796;42.654;23.316;2023-12-20T02:46:54;76.07;;;39.00;;
29196;SDS011;62796;42.654;23.316;2023-12-20T02:49:19;76.93;;;40.90;;
29196;SDS011;62796;42.654;23.316;2023-12-20T02:51:45;75.15;;;40.38;;
29196;SDS011;62796;42.654;23.316;2023-12-20T02:54:11;79.90;;;40.55;;
29196;SDS011;62796;42.654;23.316;2023-12-20T02:56:36;68.50;;;38.78;;
29196;SDS011;62796;42.654;23.316;2023-12-20T02:59:02;70.43;;;38.53;;
29196;SDS011;62796;42.654;23.316;2023-12-20T03:01:30;74.22;;;36.95;;
29196;SDS011;62796;42.654;23.316;2023-12-20T03:03:56;61.22;;;31.98;;
29196;SDS011;62796;42.654;23.316;2023-12-20T03:06:21;63.33;;;33.08;;
29196;SDS011;62796;42.654;23.316;2023-12-20T03:08:47;62.35;;;32.28;;
29196;SDS011;62796;42.654;23.316;2023-12-20T03:11:12;61.88;;;32.97;;
29196;SDS011;62796;42.654;23.316;2023-12-20T03:13:37;57.13;;;31.25;;
29196;SDS011;62796;42.654;23.316;2023-12-20T03:16:09;64.82;;;33.53;;
29196;SDS011;62796;42.654;23.316;2023-12-20T03:18:38;56.10;;;30.27;;
29196;SDS011;62796;42.654;23.316;2023-12-20T03:21:04;58.10;;;29.88;;
29196;SDS011;62796;42.654;23.316;2023-12-20T03:23:30;75.80;;;39.72;;
29196;SDS011;62796;42.654;23.316;2023-12-20T03:25:57;74.18;;;40.33;;
29196;SDS011;62796;42.654;23.316;2023-12-20T03:28:23;67.20;;;37.92;;
29196;SDS011;62796;42.654;23.316;2023-12-20T03:30:49;65.60;;;36.35;;
29196;SDS011;62796;42.654;23.316;2023-12-20T03:33:14;67.97;;;36.95;;
29196;SDS011;62796;42.654;23.316;2023-12-20T03:35:40;69.18;;;36.83;;
29196;SDS011;62796;42.654;23.316;2023-12-20T03:38:05;71.22;;;38.58;;
29196;SDS011;62796;42.654;23.316;2023-12-20T03:40:30;71.22;;;39.65;;
29196;SDS011;62796;42.654;23.316;2023-12-20T03:42:56;70.60;;;37.90;;
29196;SDS011;62796;42.654;23.316;2023-12-20T03:45:21;66.38;;;37.28;;
29196;SDS011;62796;42.654;23.316;2023-12-20T03:47:47;75.57;;;39.45;;
29196;SDS011;62796;42.654;23.316;2023-12-20T03:50:12;80.40;;;39.90;;
29196;SDS011;62796;42.654;23.316;2023-12-20T03:52:38;71.28;;;40.35;;
29196;SDS011;62796;42.654;23.316;2023-12-20T03:55:03;72.10;;;37.83;;
29196;SDS011;62796;42.654;23.316;2023-12-20T03:57:29;72.82;;;39.05;;
29196;SDS011;62796;42.654;23.316;2023-12-20T03:59:54;74.20;;;38.05;;
29196;SDS011;62796;42.654;23.316;2023-12-20T04:02:20;71.82;;;38.55;;
29196;SDS011;62796;42.654;23.316;2023-12-20T04:04:45;71.57;;;39.58;;
29196;SDS011;62796;42.654;23.316;2023-12-20T04:07:11;78.40;;;39.85;;
29196;SDS011;62796;42.654;23.316;2023-12-20T04:09:36;82.13;;;41.40;;
29196;SDS011;62796;42.654;23.316;2023-12-20T04:12:02;76.72;;;40.63;;
29196;SDS011;62796;42.654;23.316;2023-12-20T04:14:28;75.70;;;39.97;;
29196;SDS011;62796;42.654;23.316;2023-12-20T04:16:53;74.82;;;39.70;;
29196;SDS011;62796;42.654;23.316;2023-12-20T04:19:19;80.15;;;41.78;;
29196;SDS011;62796;42.654;23.316;2023-12-20T04:21:44;80.15;;;40.42;;
29196;SDS011;62796;42.654;23.316;2023-12-20T04:24:10;81.63;;;42.85;;
29196;SDS011;62796;42.654;23.316;2023-12-20T04:26:35;90.30;;;46.72;;
29196;SDS011;62796;42.654;23.316;2023-12-20T04:29:01;99.68;;;47.13;;
29196;SDS011;62796;42.654;23.316;2023-12-20T04:31:26;89.85;;;47.08;;
29196;SDS011;62796;42.654;23.316;2023-12-20T04:33:51;90.55;;;45.60;;
29196;SDS011;62796;42.654;23.316;2023-12-20T04:36:17;92.40;;;48.60;;
29196;SDS011;62796;42.654;23.316;2023-12-20T04:38:42;84.63;;;45.75;;
29196;SDS011;62796;42.654;23.316;2023-12-20T04:41:08;84.80;;;45.15;;
29196;SDS011;62796;42.654;23.316;2023-12-20T04:43:33;86.05;;;46.47;;
29196;SDS011;62796;42.654;23.316;2023-12-20T04:45:58;85.70;;;43.83;;
29196;SDS011;62796;42.654;23.316;2023-12-20T04:48:24;84.63;;;44.90;;
29196;SDS011;62796;42.654;23.316;2023-12-20T04:50:49;92.00;;;45.55;;
29196;SDS011;62796;42.654;23.316;2023-12-20T04:53:15;81.85;;;45.80;;
29196;SDS011;62796;42.654;23.316;2023-12-20T04:55:40;82.57;;;44.92;;
29196;SDS011;62796;42.654;23.316;2023-12-20T04:58:05;76.05;;;42.60;;
29196;SDS011;62796;42.654;23.316;2023-12-20T05:00:31;79.32;;;42.58;;
29196;SDS011;62796;42.654;23.316;2023-12-20T05:02:56;83.32;;;44.38;;
29196;SDS011;62796;42.654;23.316;2023-12-20T05:05:21;82.25;;;44.58;;
29196;SDS011;62796;42.654;23.316;2023-12-20T05:07:47;88.07;;;45.40;;
29196;SDS011;62796;42.654;23.316;2023-12-20T05:10:12;75.20;;;42.42;;
29196;SDS011;62796;42.654;23.316;2023-12-20T05:12:38;85.03;;;45.60;;
29196;SDS011;62796;42.654;23.316;2023-12-20T05:15:05;82.13;;;46.00;;
29196;SDS011;62796;42.654;23.316;2023-12-20T05:17:31;83.05;;;46.25;;
29196;SDS011;62796;42.654;23.316;2023-12-20T05:19:56;87.05;;;44.08;;
29196;SDS011;62796;42.654;23.316;2023-12-20T05:22:22;86.03;;;46.30;;
29196;SDS011;62796;42.654;23.316;2023-12-20T05:24:47;87.43;;;47.30;;
29196;SDS011;62796;42.654;23.316;2023-12-20T05:27:12;82.68;;;46.30;;
29196;SDS011;62796;42.654;23.316;2023-12-20T05:29:38;87.97;;;45.30;;
29196;SDS011;62796;42.654;23.316;2023-12-20T05:32:03;85.85;;;45.75;;
29196;SDS011;62796;42.654;23.316;2023-12-20T05:34:29;95.65;;;50.63;;
29196;SDS011;62796;42.654;23.316;2023-12-20T05:36:55;124.57;;;66.32;;
29196;SDS011;62796;42.654;23.316;2023-12-20T05:39:21;127.80;;;68.07;;
29196;SDS011;62796;42.654;23.316;2023-12-20T05:41:46;125.07;;;68.13;;
29196;SDS011;62796;42.654;23.316;2023-12-20T05:44:12;121.38;;;64.82;;
29196;SDS011;62796;42.654;23.316;2023-12-20T05:46:38;127.53;;;68.85;;
29196;SDS011;62796;42.654;23.316;2023-12-20T05:49:05;117.25;;;65.40;;
29196;SDS011;62796;42.654;23.316;2023-12-20T05:51:30;124.07;;;66.57;;
29196;SDS011;62796;42.654;23.316;2023-12-20T05:53:55;128.07;;;66.68;;
29196;SDS011;62796;42.654;23.316;2023-12-20T05:56:21;118.60;;;66.53;;
29196;SDS011;62796;42.654;23.316;2023-12-20T05:58:47;129.23;;;70.38;;
29196;SDS011;62796;42.654;23.316;2023-12-20T06:01:13;128.82;;;70.85;;
29196;SDS011;62796;42.654;23.316;2023-12-20T06:03:41;121.03;;;67.25;;
29196;SDS011;62796;42.654;23.316;2023-12-20T06:06:07;125.20;;;67.97;;
29196;SDS011;62796;42.654;23.316;2023-12-20T06:08:32;131.25;;;68.97;;
29196;SDS011;62796;42.654;23.316;2023-12-20T06:10:58;133.25;;;70.93;;
29196;SDS011;62796;42.654;23.316;2023-12-20T06:13:23;125.78;;;68.20;;
29196;SDS011;62796;42.654;23.316;2023-12-20T06:15:49;132.10;;;71.63;;
29196;SDS011;62796;42.654;23.316;2023-12-20T06:18:14;131.20;;;71.80;;
29196;SDS011;62796;42.654;23.316;2023-12-20T06:20:39;146.85;;;76.95;;
29196;SDS011;62796;42.654;23.316;2023-12-20T06:23:05;141.50;;;74.22;;
29196;SDS011;62796;42.654;23.316;2023-12-20T06:25:30;145.90;;;75.93;;
29196;SDS011;62796;42.654;23.316;2023-12-20T06:27:56;148.70;;;76.80;;
29196;SDS011;62796;42.654;23.316;2023-12-20T06:30:21;154.73;;;73.95;;
29196;SDS011;62796;42.654;23.316;2023-12-20T06:32:46;143.88;;;72.38;;
29196;SDS011;62796;42.654;23.316;2023-12-20T06:35:12;155.30;;;71.43;;
29196;SDS011;62796;42.654;23.316;2023-12-20T06:37:38;149.90;;;71.82;;
29196;SDS011;62796;42.654;23.316;2023-12-20T06:40:07;140.55;;;70.35;;
29196;SDS011;62796;42.654;23.316;2023-12-20T06:42:34;151.02;;;74.93;;
29196;SDS011;62796;42.654;23.316;2023-12-20T06:45:00;143.60;;;76.30;;
29196;SDS011;62796;42.654;23.316;2023-12-20T06:47:25;155.43;;;75.45;;
29196;SDS011;62796;42.654;23.316;2023-12-20T06:49:51;137.23;;;74.03;;
29196;SDS011;62796;42.654;23.316;2023-12-20T06:52:16;143.18;;;77.57;;
29196;SDS011;62796;42.654;23.316;2023-12-20T06:54:42;142.05;;;76.55;;
29196;SDS011;62796;42.654;23.316;2023-12-20T06:57:07;139.43;;;76.05;;
29196;SDS011;62796;42.654;23.316;2023-12-20T06:59:37;161.15;;;79.10;;
29196;SDS011;62796;42.654;23.316;2023-12-20T07:02:04;151.32;;;76.60;;
29196;SDS011;62796;42.654;23.316;2023-12-20T07:04:30;154.43;;;79.43;;
29196;SDS011;62796;42.654;23.316;2023-12-20T07:06:55;157.00;;;83.28;;
29196;SDS011;62796;42.654;23.316;2023-12-20T07:09:22;159.93;;;81.07;;
29196;SDS011;62796;42.654;23.316;2023-12-20T07:11:48;150.68;;;80.13;;
29196;SDS011;62796;42.654;23.316;2023-12-20T07:14:13;147.25;;;81.63;;
29196;SDS011;62796;42.654;23.316;2023-12-20T07:16:39;149.60;;;82.80;;
29196;SDS011;62796;42.654;23.316;2023-12-20T07:19:05;148.77;;;82.05;;
29196;SDS011;62796;42.654;23.316;2023-12-20T07:21:31;147.95;;;78.82;;
29196;SDS011;62796;42.654;23.316;2023-12-20T07:23:56;146.23;;;81.95;;
29196;SDS011;62796;42.654;23.316;2023-12-20T07:26:22;138.27;;;78.93;;
29196;SDS011;62796;42.654;23.316;2023-12-20T07:28:48;145.35;;;76.93;;
29196;SDS011;62796;42.654;23.316;2023-12-20T07:31:15;135.73;;;75.93;;
29196;SDS011;62796;42.654;23.316;2023-12-20T07:33:40;140.38;;;76.63;;
29196;SDS011;62796;42.654;23.316;2023-12-20T07:36:06;139.10;;;78.82;;
29196;SDS011;62796;42.654;23.316;2023-12-20T07:38:32;131.68;;;75.18;;
29196;SDS011;62796;42.654;23.316;2023-12-20T07:40:57;136.23;;;75.55;;
29196;SDS011;62796;42.654;23.316;2023-12-20T07:43:23;139.93;;;77.60;;
29196;SDS011;62796;42.654;23.316;2023-12-20T07:45:48;147.40;;;78.72;;
29196;SDS011;62796;42.654;23.316;2023-12-20T07:48:23;141.20;;;78.78;;
29196;SDS011;62796;42.654;23.316;2023-12-20T07:50:48;138.25;;;80.88;;
29196;SDS011;62796;42.654;23.316;2023-12-20T07:53:13;144.50;;;80.65;;
29196;SDS011;62796;42.654;23.316;2023-12-20T07:55:39;142.52;;;82.70;;
29196;SDS011;62796;42.654;23.316;2023-12-20T07:58:04;147.23;;;86.63;;
29196;SDS011;62796;42.654;23.316;2023-12-20T08:00:30;140.88;;;84.88;;
29196;SDS011;62796;42.654;23.316;2023-12-20T08:02:55;149.63;;;88.18;;
29196;SDS011;62796;42.654;23.316;2023-12-20T08:05:21;152.15;;;83.88;;
29196;SDS011;62796;42.654;23.316;2023-12-20T08:07:46;161.85;;;85.47;;
29196;SDS011;62796;42.654;23.316;2023-12-20T08:10:11;153.50;;;84.47;;
29196;SDS011;62796;42.654;23.316;2023-12-20T08:12:37;160.38;;;85.97;;
29196;SDS011;62796;42.654;23.316;2023-12-20T08:15:05;150.80;;;84.68;;
29196;SDS011;62796;42.654;23.316;2023-12-20T08:17:30;151.85;;;84.80;;
29196;SDS011;62796;42.654;23.316;2023-12-20T08:19:56;169.55;;;86.05;;
29196;SDS011;62796;42.654;23.316;2023-12-20T08:22:21;162.80;;;84.78;;
29196;SDS011;62796;42.654;23.316;2023-12-20T08:24:46;170.35;;;88.93;;
29196;SDS011;62796;42.654;23.316;2023-12-20T08:27:13;173.07;;;87.32;;
29196;SDS011;62796;42.654;23.316;2023-12-20T08:29:39;165.52;;;85.25;;
29196;SDS011;62796;42.654;23.316;2023-12-20T08:32:04;176.07;;;88.95;;
29196;SDS011;62796;42.654;23.316;2023-12-20T08:34:30;162.85;;;87.05;;
29196;SDS011;62796;42.654;23.316;2023-12-20T08:36:56;153.00;;;81.70;;
29196;SDS011;62796;42.654;23.316;2023-12-20T08:39:21;162.45;;;87.15;;
29196;SDS011;62796;42.654;23.316;2023-12-20T08:41:48;152.75;;;83.95;;
29196;SDS011;62796;42.654;23.316;2023-12-20T08:44:13;161.77;;;85.97;;
29196;SDS011;62796;42.654;23.316;2023-12-20T08:46:39;154.93;;;85.10;;
29196;SDS011;62796;42.654;23.316;2023-12-20T08:49:04;178.85;;;90.00;;
29196;SDS011;62796;42.654;23.316;2023-12-20T08:51:30;172.25;;;86.35;;
29196;SDS011;62796;42.654;23.316;2023-12-20T08:53:55;161.80;;;86.50;;
29196;SDS011;62796;42.654;23.316;2023-12-20T08:56:21;181.55;;;87.93;;
29196;SDS011;62796;42.654;23.316;2023-12-20T08:58:46;175.60;;;86.32;;
29196;SDS011;62796;42.654;23.316;2023-12-20T09:01:12;178.02;;;89.28;;
29196;SDS011;62796;42.654;23.316;2023-12-20T09:03:38;180.45;;;89.10;;
29196;SDS011;62796;42.654;23.316;2023-12-20T09:06:04;178.70;;;90.60;;
29196;SDS011;62796;42.654;23.316;2023-12-20T09:08:30;175.75;;;88.65;;
29196;SDS011;62796;42.654;23.316;2023-12-20T09:10:56;180.95;;;89.70;;
29196;SDS011;62796;42.654;23.316;2023-12-20T09:13:21;178.00;;;89.75;;
29196;SDS011;62796;42.654;23.316;2023-12-20T09:15:51;180.20;;;90.20;;
29196;SDS011;62796;42.654;23.316;2023-12-20T09:18:17;163.90;;;87.20;;
29196;SDS011;62796;42.654;23.316;2023-12-20T09:20:42;161.88;;;84.28;;
29196;SDS011;62796;42.654;23.316;2023-12-20T09:23:08;157.10;;;86.75;;
29196;SDS011;62796;42.654;23.316;2023-12-20T09:25:33;151.48;;;81.28;;
29196;SDS011;62796;42.654;23.316;2023-12-20T09:27:59;135.32;;;75.93;;
29196;SDS011;62796;42.654;23.316;2023-12-20T09:30:24;135.43;;;75.28;;
29196;SDS011;62796;42.654;23.316;2023-12-20T09:32:50;137.88;;;74.57;;
29196;SDS011;62796;42.654;23.316;2023-12-20T09:35:15;132.95;;;76.72;;
29196;SDS011;62796;42.654;23.316;2023-12-20T09:37:41;123.15;;;68.47;;
29196;SDS011;62796;42.654;23.316;2023-12-20T09:40:10;113.63;;;67.93;;
29196;SDS011;62796;42.654;23.316;2023-12-20T09:42:39;115.10;;;65.82;;
29196;SDS011;62796;42.654;23.316;2023-12-20T09:45:22;119.05;;;67.82;;
29196;SDS011;62796;42.654;23.316;2023-12-20T09:47:48;111.30;;;64.43;;
29196;SDS011;62796;42.654;23.316;2023-12-20T09:50:15;118.20;;;66.75;;
29196;SDS011;62796;42.654;23.316;2023-12-20T09:52:44;111.38;;;62.28;;
29196;SDS011;62796;42.654;23.316;2023-12-20T09:55:14;94.38;;;54.83;;
29196;SDS011;62796;42.654;23.316;2023-12-20T09:57:42;95.43;;;55.65;;
29196;SDS011;62796;42.654;23.316;2023-12-20T10:00:07;96.82;;;55.25;;
29196;SDS011;62796;42.654;23.316;2023-12-20T10:02:33;102.93;;;52.88;;
29196;SDS011;62796;42.654;23.316;2023-12-20T10:05:01;100.03;;;52.20;;
29196;SDS011;62796;42.654;23.316;2023-12-20T10:07:28;103.38;;;53.92;;
29196;SDS011;62796;42.654;23.316;2023-12-20T10:09:54;98.47;;;54.17;;
29196;SDS011;62796;42.654;23.316;2023-12-20T10:12:21;101.30;;;54.70;;
29196;SDS011;62796;42.654;23.316;2023-12-20T10:14:46;106.70;;;57.05;;
29196;SDS011;62796;42.654;23.316;2023-12-20T10:17:11;98.82;;;55.55;;
29196;SDS011;62796;42.654;23.316;2023-12-20T10:19:37;104.25;;;57.40;;
29196;SDS011;62796;42.654;23.316;2023-12-20T10:22:03;471.38;;;333.88;;
29196;SDS011;62796;42.654;23.316;2023-12-20T10:24:29;217.45;;;124.32;;
29196;SDS011;62796;42.654;23.316;2023-12-20T10:27:05;119.20;;;68.75;;
29196;SDS011;62796;42.654;23.316;2023-12-20T10:29:40;116.40;;;66.93;;
29196;SDS011;62796;42.654;23.316;2023-12-20T10:32:21;120.70;;;65.38;;
29196;SDS011;62796;42.654;23.316;2023-12-20T10:34:51;125.03;;;68.30;;
29196;SDS011;62796;42.654;23.316;2023-12-20T10:37:18;119.15;;;69.57;;
29196;SDS011;62796;42.654;23.316;2023-12-20T10:39:43;129.27;;;70.55;;
29196;SDS011;62796;42.654;23.316;2023-12-20T10:42:13;123.15;;;67.95;;
29196;SDS011;62796;42.654;23.316;2023-12-20T10:44:39;122.93;;;69.10;;
29196;SDS011;62796;42.654;23.316;2023-12-20T10:47:04;127.35;;;70.95;;
29196;SDS011;62796;42.654;23.316;2023-12-20T10:49:31;117.20;;;67.70;;
29196;SDS011;62796;42.654;23.316;2023-12-20T10:51:58;116.90;;;66.68;;
29196;SDS011;62796;42.654;23.316;2023-12-20T10:54:27;119.85;;;64.57;;
29196;SDS011;62796;42.654;23.316;2023-12-20T10:56:53;117.18;;;65.57;;
29196;SDS011;62796;42.654;23.316;2023-12-20T10:59:19;114.47;;;64.93;;
29196;SDS011;62796;42.654;23.316;2023-12-20T11:01:47;124.95;;;67.13;;
29196;SDS011;62796;42.654;23.316;2023-12-20T11:04:15;124.68;;;70.25;;
29196;SDS011;62796;42.654;23.316;2023-12-20T11:06:51;124.72;;;68.35;;
29196;SDS011;62796;42.654;23.316;2023-12-20T11:09:24;378.63;;;234.82;;
29196;SDS011;62796;42.654;23.316;2023-12-20T11:14:36;125.15;;;68.13;;
29196;SDS011;62796;42.654;23.316;2023-12-20T11:17:12;121.85;;;66.93;;
29196;SDS011;62796;42.654;23.316;2023-12-20T11:22:27;124.05;;;66.80;;
29196;SDS011;62796;42.654;23.316;2023-12-20T11:25:08;127.53;;;69.28;;
29196;SDS011;62796;42.654;23.316;2023-12-20T11:27:36;126.03;;;66.68;;
29196;SDS011;62796;42.654;23.316;2023-12-20T11:30:11;125.15;;;65.40;;
29196;SDS011;62796;42.654;23.316;2023-12-20T11:32:39;122.05;;;64.03;;
29196;SDS011;62796;42.654;23.316;2023-12-20T11:37:37;124.20;;;63.30;;
29196;SDS011;62796;42.654;23.316;2023-12-20T11:40:05;123.32;;;63.78;;
29196;SDS011;62796;42.654;23.316;2023-12-20T11:42:44;122.05;;;63.30;;
29196;SDS011;62796;42.654;23.316;2023-12-20T11:45:13;124.03;;;62.65;;
29196;SDS011;62796;42.654;23.316;2023-12-20T11:47:41;124.93;;;65.75;;
29196;SDS011;62796;42.654;23.316;2023-12-20T11:50:09;117.43;;;63.05;;
29196;SDS011;62796;42.654;23.316;2023-12-20T11:52:34;123.68;;;63.25;;
29196;SDS011;62796;42.654;23.316;2023-12-20T11:55:00;131.55;;;64.38;;
29196;SDS011;62796;42.654;23.316;2023-12-20T11:57:25;116.18;;;60.58;;
29196;SDS011;62796;42.654;23.316;2023-12-20T11:59:50;122.80;;;62.15;;
29196;SDS011;62796;42.654;23.316;2023-12-20T12:02:16;121.13;;;61.08;;
29196;SDS011;62796;42.654;23.316;2023-12-20T12:04:41;127.28;;;63.30;;
29196;SDS011;62796;42.654;23.316;2023-12-20T12:07:07;117.70;;;60.88;;
29196;SDS011;62796;42.654;23.316;2023-12-20T12:09:32;123.35;;;61.65;;
29196;SDS011;62796;42.654;23.316;2023-12-20T12:11:58;107.93;;;58.30;;
29196;SDS011;62796;42.654;23.316;2023-12-20T12:14:24;112.78;;;59.95;;
29196;SDS011;62796;42.654;23.316;2023-12-20T12:16:49;112.47;;;57.75;;
29196;SDS011;62796;42.654;23.316;2023-12-20T12:19:25;106.03;;;59.58;;
29196;SDS011;62796;42.654;23.316;2023-12-20T12:22:03;113.60;;;59.45;;
29196;SDS011;62796;42.654;23.316;2023-12-20T12:24:34;107.95;;;58.05;;
29196;SDS011;62796;42.654;23.316;2023-12-20T12:26:59;110.47;;;57.67;;
29196;SDS011;62796;42.654;23.316;2023-12-20T12:29:25;108.65;;;58.80;;
29196;SDS011;62796;42.654;23.316;2023-12-20T12:31:50;109.22;;;57.60;;
29196;SDS011;62796;42.654;23.316;2023-12-20T12:34:17;97.43;;;56.28;;
29196;SDS011;62796;42.654;23.316;2023-12-20T12:36:43;90.57;;;54.35;;
29196;SDS011;62796;42.654;23.316;2023-12-20T12:39:08;102.35;;;57.15;;
29196;SDS011;62796;42.654;23.316;2023-12-20T12:41:34;105.57;;;57.92;;
29196;SDS011;62796;42.654;23.316;2023-12-20T12:44:00;107.28;;;57.55;;
29196;SDS011;62796;42.654;23.316;2023-12-20T12:46:25;100.88;;;56.38;;
29196;SDS011;62796;42.654;23.316;2023-12-20T12:48:51;95.10;;;56.22;;
29196;SDS011;62796;42.654;23.316;2023-12-20T12:51:16;94.13;;;54.55;;
29196;SDS011;62796;42.654;23.316;2023-12-20T12:53:41;103.40;;;57.75;;
29196;SDS011;62796;42.654;23.316;2023-12-20T12:56:07;100.88;;;56.17;;
29196;SDS011;62796;42.654;23.316;2023-12-20T12:58:33;99.47;;;57.35;;
29196;SDS011;62796;42.654;23.316;2023-12-20T13:00:58;104.80;;;57.30;;
29196;SDS011;62796;42.654;23.316;2023-12-20T13:03:24;93.05;;;56.42;;
29196;SDS011;62796;42.654;23.316;2023-12-20T13:05:49;97.65;;;56.22;;
29196;SDS011;62796;42.654;23.316;2023-12-20T13:08:15;99.75;;;56.70;;
29196;SDS011;62796;42.654;23.316;2023-12-20T13:10:41;105.32;;;57.13;;
29196;SDS011;62796;42.654;23.316;2023-12-20T13:13:06;97.45;;;56.65;;
29196;SDS011;62796;42.654;23.316;2023-12-20T13:15:32;98.38;;;57.15;;
29196;SDS011;62796;42.654;23.316;2023-12-20T13:17:57;101.15;;;55.20;;
29196;SDS011;62796;42.654;23.316;2023-12-20T13:20:23;95.25;;;55.58;;
29196;SDS011;62796;42.654;23.316;2023-12-20T13:22:48;95.82;;;55.35;;
29196;SDS011;62796;42.654;23.316;2023-12-20T13:25:14;92.57;;;54.60;;
29196;SDS011;62796;42.654;23.316;2023-12-20T13:27:39;104.15;;;58.10;;
29196;SDS011;62796;42.654;23.316;2023-12-20T13:30:06;100.75;;;55.90;;
29196;SDS011;62796;42.654;23.316;2023-12-20T13:32:32;93.78;;;54.72;;
29196;SDS011;62796;42.654;23.316;2023-12-20T13:34:57;98.60;;;55.92;;
29196;SDS011;62796;42.654;23.316;2023-12-20T13:37:23;103.97;;;56.17;;
29196;SDS011;62796;42.654;23.316;2023-12-20T13:39:48;103.95;;;57.38;;
29196;SDS011;62796;42.654;23.316;2023-12-20T13:42:14;108.90;;;58.95;;
29196;SDS011;62796;42.654;23.316;2023-12-20T13:44:39;109.10;;;60.92;;
29196;SDS011;62796;42.654;23.316;2023-12-20T13:47:05;115.72;;;60.03;;
29196;SDS011;62796;42.654;23.316;2023-12-20T13:49:31;112.53;;;60.05;;
29196;SDS011;62796;42.654;23.316;2023-12-20T13:51:56;116.85;;;61.17;;
29196;SDS011;62796;42.654;23.316;2023-12-20T13:54:22;116.47;;;60.92;;
29196;SDS011;62796;42.654;23.316;2023-12-20T13:56:48;115.35;;;59.50;;
29196;SDS011;62796;42.654;23.316;2023-12-20T13:59:13;111.40;;;59.67;;
29196;SDS011;62796;42.654;23.316;2023-12-20T14:01:40;114.45;;;58.60;;
29196;SDS011;62796;42.654;23.316;2023-12-20T14:04:05;110.55;;;58.58;;